Time;durP1;ratioP1;P1;durP2;ratioP2;P2;SDS_P1;SDS_P2;PMS_P1;PMS_P2;Temp;Humidity;BMP_temperature;BMP_pressure;BME280_temperature;BME280_humidity;BME280_pressure;Samples;Min_cycle;Max_cycle;Signal;HPM_P1;HPM_P2
2022/05/29 00:00:18;;;;;;;16.38;14.25;;;358.40;2329.60;;;;;;5052033;28;20112;-81
2022/05/29 00:02:44;;;;;;;17.25;14.55;;;358.50;2329.60;;;;;;5051974;28;20036;-80
2022/05/29 00:05:11;;;;;;;16.55;12.45;;;358.70;2329.60;;;;;;5051640;28;20032;-80
2022/05/29 00:07:39;;;;;;;14.93;13.32;;;358.60;2329.60;;;;;;5051811;28;20029;-80
2022/05/29 00:10:09;;;;;;;19.45;14.27;;;358.70;2329.60;;;;;;5051888;28;20032;-81
2022/05/29 00:12:35;;;;;;;17.15;13.25;;;358.70;2329.60;;;;;;5051862;28;20030;-79
2022/05/29 00:15:01;;;;;;;16.88;12.98;;;358.70;2329.60;;;;;;5051737;28;20029;-80
2022/05/29 00:17:27;;;;;;;16.08;13.52;;;358.70;2329.60;;;;;;5051586;28;20037;-80
2022/05/29 00:19:53;;;;;;;17.70;12.57;;;358.60;2329.60;;;;;;5052832;28;20032;-79
2022/05/29 00:22:21;;;;;;;17.83;14.88;;;333.70;2329.60;;;;;;5051602;28;20455;-80
2022/05/29 00:24:49;;;;;;;19.00;14.98;;;358.40;2329.60;;;;;;5051657;28;20063;-80
2022/05/29 00:27:16;;;;;;;17.23;14.98;;;358.40;2329.60;;;;;;5051708;28;20380;-81
2022/05/29 00:29:43;;;;;;;20.52;17.73;;;333.70;2329.60;;;;;;5051581;28;20083;-81
2022/05/29 00:32:09;;;;;;;17.50;12.82;;;358.40;2329.60;;;;;;5051526;28;20037;-80
2022/05/29 00:34:35;;;;;;;24.35;17.80;;;333.60;2329.60;;;;;;5051591;28;20099;-81
2022/05/29 00:37:03;;;;;;;20.73;16.20;;;333.60;2329.60;;;;;;5051594;28;20071;-81
2022/05/29 00:39:29;;;;;;;24.00;18.73;;;333.60;2329.60;;;;;;5051486;28;20028;-81
2022/05/29 00:41:55;;;;;;;23.17;18.92;;;333.60;2329.60;;;;;;5050900;28;20040;-80
2022/05/29 00:44:24;;;;;;;21.50;16.30;;;333.60;2329.60;;;;;;5052137;28;20025;-80
2022/05/29 00:47:00;;;;;;;23.58;19.98;;;333.50;2329.60;;;;;;5051413;28;20068;-82
2022/05/29 00:49:31;;;;;;;29.92;21.60;;;333.70;2329.60;;;;;;5051125;28;20029;-80
2022/05/29 00:52:08;;;;;;;31.27;21.77;;;333.60;2329.60;;;;;;5051211;28;20037;-81
2022/05/29 00:54:42;;;;;;;34.95;22.05;;;333.60;2329.60;;;;;;5050909;28;20036;-81
2022/05/29 00:57:12;;;;;;;29.35;23.70;;;333.60;2329.60;;;;;;5051009;28;20182;-81
2022/05/29 00:59:38;;;;;;;25.50;21.95;;;333.60;2329.60;;;;;;5050975;28;20385;-80
2022/05/29 01:02:05;;;;;;;33.90;25.35;;;333.60;2329.60;;;;;;5050987;28;20025;-79
2022/05/29 01:04:33;;;;;;;28.83;22.77;;;358.40;2329.60;;;;;;5050852;28;20025;-80
2022/05/29 01:07:03;;;;;;;29.15;24.75;;;358.50;2329.60;;;;;;5050791;28;20048;-80
2022/05/29 01:09:30;;;;;;;27.25;23.20;;;358.60;2329.60;;;;;;5050840;28;20109;-81
2022/05/29 01:12:07;;;;;;;29.38;23.65;;;358.60;2329.60;;;;;;5050953;28;20128;-81
2022/05/29 01:14:57;;;;;;;31.65;24.73;;;358.70;2329.60;;;;;;5084334;28;20098;-80
2022/05/29 01:17:39;;;;;;;26.90;23.00;;;358.70;2329.60;;;;;;5050784;28;20411;-81
2022/05/29 01:20:13;;;;;;;30.60;25.40;;;358.70;2329.60;;;;;;5050818;28;20047;-80
2022/05/29 01:22:45;;;;;;;28.20;23.33;;;358.70;2329.60;;;;;;5050860;28;20029;-80
2022/05/29 01:25:13;;;;;;;29.08;25.52;;;358.70;2329.60;;;;;;5050869;28;20037;-81
2022/05/29 01:27:49;;;;;;;32.42;25.73;;;358.80;2329.60;;;;;;5050927;28;20025;-81
2022/05/29 01:30:19;;;;;;;30.20;24.73;;;358.80;2329.60;;;;;;5047572;28;20036;-81
2022/05/29 01:33:09;;;;;;;32.53;25.77;;;358.80;2329.60;;;;;;5030972;28;20036;-81
2022/05/29 01:35:44;;;;;;;25.92;23.17;;;358.80;2329.60;;;;;;5047567;28;20029;-82
2022/05/29 01:38:35;;;;;;;24.88;22.13;;;358.90;2329.60;;;;;;5030883;28;20094;-80
2022/05/29 01:41:08;;;;;;;25.20;22.55;;;358.90;2329.60;;;;;;5043883;28;20034;-81
2022/05/29 01:43:52;;;;;;;28.52;23.23;;;358.90;2329.60;;;;;;5031068;28;20041;-80
2022/05/29 01:46:31;;;;;;;25.85;22.63;;;359.00;2329.60;;;;;;5047538;28;20033;-81
2022/05/29 01:49:18;;;;;;;26.25;23.42;;;359.00;2329.60;;;;;;5030722;28;20021;-80
2022/05/29 01:51:59;;;;;;;32.42;24.17;;;359.00;2329.60;;;;;;5047474;28;20029;-81
2022/05/29 01:54:50;;;;;;;27.25;23.80;;;359.00;2329.60;;;;;;5030605;28;20100;-81
2022/05/29 01:57:37;;;;;;;26.02;22.70;;;359.00;2329.60;;;;;;5047196;28;20401;-80
2022/05/29 02:00:10;;;;;;;28.58;25.48;;;359.10;2329.60;;;;;;5047040;28;20029;-81
2022/05/29 02:02:41;;;;;;;31.40;24.73;;;359.10;2329.60;;;;;;5030394;28;20113;-80
2022/05/29 02:05:11;;;;;;;26.95;22.60;;;359.10;2329.60;;;;;;5031665;28;20133;-80
2022/05/29 02:07:50;;;;;;;25.23;21.80;;;359.20;2329.60;;;;;;5030535;28;20022;-80
2022/05/29 02:10:41;;;;;;;29.38;23.05;;;359.20;2329.60;;;;;;5030740;28;20029;-80
2022/05/29 02:13:24;;;;;;;27.95;23.77;;;359.20;2329.60;;;;;;5034217;28;20072;-82
2022/05/29 02:15:52;;;;;;;27.63;22.02;;;359.10;2329.60;;;;;;5034280;28;20116;-82
2022/05/29 02:18:41;;;;;;;25.73;22.10;;;358.80;2329.60;;;;;;5034085;28;20045;-82
2022/05/29 02:21:14;;;;;;;26.90;21.27;;;358.60;2329.60;;;;;;5050150;28;20505;-82
2022/05/29 02:23:47;;;;;;;25.13;19.90;;;358.50;2329.60;;;;;;5034096;28;20072;-81
2022/05/29 02:26:19;;;;;;;24.35;19.13;;;333.70;2329.60;;;;;;5034121;28;20083;-82
2022/05/29 02:28:50;;;;;;;28.00;22.83;;;333.70;2329.60;;;;;;5034016;28;20061;-80
2022/05/29 02:31:42;;;;;;;27.45;22.67;;;333.60;2329.60;;;;;;5033813;28;20467;-80
2022/05/29 02:34:14;;;;;;;28.08;22.60;;;358.40;2329.60;;;;;;5050358;28;20539;-80
2022/05/29 02:36:52;;;;;;;30.88;24.83;;;358.50;2329.60;;;;;;5050511;28;20036;-82
2022/05/29 02:39:42;;;;;;;29.65;22.85;;;358.60;2329.60;;;;;;5033694;28;20040;-82
2022/05/29 02:42:34;;;;;;;33.35;24.35;;;358.70;2329.60;;;;;;5033903;28;20029;-81
2022/05/29 02:45:25;;;;;;;33.13;22.27;;;358.80;2329.60;;;;;;5049545;28;20040;-82
2022/05/29 02:48:23;;;;;;;24.35;21.77;;;358.90;2329.60;;;;;;5050279;28;20120;-81
2022/05/29 02:51:16;;;;;;;25.23;21.88;;;358.90;2329.60;;;;;;5050078;28;20022;-81
2022/05/29 02:53:44;;;;;;;26.40;21.83;;;358.90;2329.60;;;;;;5049569;28;20029;-82
2022/05/29 02:56:11;;;;;;;26.15;21.65;;;358.80;2329.60;;;;;;5033496;28;20266;-82
2022/05/29 02:58:39;;;;;;;27.70;19.13;;;358.50;2329.60;;;;;;5034599;28;20072;-81
2022/05/29 03:01:05;;;;;;;22.75;19.40;;;358.40;2329.60;;;;;;5033251;28;20026;-81
2022/05/29 03:04:04;;;;;;;23.38;20.42;;;358.40;2329.60;;;;;;5049994;28;20385;-81
2022/05/29 03:06:50;;;;;;;32.00;19.63;;;358.40;2329.60;;;;;;5033519;28;20388;-82
2022/05/29 03:09:39;;;;;;;22.60;18.77;;;358.40;2329.60;;;;;;5050047;28;20052;-82
2022/05/29 03:12:26;;;;;;;25.23;19.90;;;333.70;2329.60;;;;;;5033216;28;20033;-81
2022/05/29 03:15:24;;;;;;;22.45;19.92;;;358.50;2329.60;;;;;;5048708;28;20034;-80
2022/05/29 03:18:08;;;;;;;26.15;21.38;;;358.40;2329.60;;;;;;5049449;28;20099;-80
2022/05/29 03:20:50;;;;;;;36.97;19.98;;;358.40;2329.60;;;;;;5049452;28;20033;-80
2022/05/29 03:23:32;;;;;;;26.08;19.45;;;358.40;2329.60;;;;;;5031537;28;20025;-80
2022/05/29 03:26:03;;;;;;;29.08;19.33;;;333.70;2329.60;;;;;;5032840;28;20392;-80
2022/05/29 03:28:54;;;;;;;24.23;18.73;;;333.70;2329.60;;;;;;5032577;28;20107;-81
2022/05/29 03:31:25;;;;;;;23.15;16.10;;;333.50;2329.60;;;;;;5032723;28;20040;-80
2022/05/29 03:33:55;;;;;;;22.17;16.65;;;333.50;2329.60;;;;;;5032599;28;20384;-80
2022/05/29 03:36:23;;;;;;;25.42;20.05;;;333.40;2329.60;;;;;;5032791;28;20034;-81
2022/05/29 03:38:48;;;;;;;26.85;19.98;;;333.50;2329.60;;;;;;5032708;28;20030;-81
2022/05/29 03:41:25;;;;;;;26.08;20.80;;;333.50;2329.60;;;;;;5032617;28;20025;-80
2022/05/29 03:43:51;;;;;;;23.02;19.65;;;333.60;2329.60;;;;;;5032457;28;20028;-81
2022/05/29 03:46:16;;;;;;;24.42;18.73;;;333.70;2329.60;;;;;;5032395;28;20033;-80
2022/05/29 03:48:42;;;;;;;25.48;18.85;;;358.40;2329.60;;;;;;5032417;28;20033;-79
2022/05/29 03:51:08;;;;;;;30.05;21.80;;;358.50;2329.60;;;;;;5033017;28;20068;-81
2022/05/29 03:53:34;;;;;;;22.90;19.17;;;358.50;2329.60;;;;;;5040146;28;20511;-81
2022/05/29 03:56:00;;;;;;;29.13;18.45;;;333.70;2329.60;;;;;;5051330;28;20032;-80
2022/05/29 03:58:26;;;;;;;27.17;20.42;;;333.60;2329.60;;;;;;5059739;28;20033;-80
2022/05/29 04:00:53;;;;;;;23.25;18.08;;;333.60;2329.60;;;;;;5053806;28;20032;-80
2022/05/29 04:03:19;;;;;;;21.13;17.38;;;333.40;2329.60;;;;;;5052537;28;20444;-81
2022/05/29 04:05:45;;;;;;;27.95;20.75;;;333.40;2329.60;;;;;;5052215;28;20115;-80
2022/05/29 04:13:42;;;;;;;31.27;21.25;;;333.60;2329.60;;;;;;5053002;28;19911;-80
2022/05/29 04:16:09;;;;;;;26.15;20.15;;;333.60;2329.60;;;;;;5051465;28;20036;-79
2022/05/29 04:18:35;;;;;;;32.70;22.58;;;333.70;2329.60;;;;;;5051842;28;20063;-80
2022/05/29 04:21:01;;;;;;;33.55;22.08;;;333.60;2329.60;;;;;;5052868;28;20053;-80
2022/05/29 04:23:26;;;;;;;30.02;23.65;;;333.60;2329.60;;;;;;5052994;28;20063;-81
2022/05/29 04:25:52;;;;;;;36.55;26.13;;;333.60;2329.60;;;;;;5051433;28;20025;-80
2022/05/29 04:28:18;;;;;;;27.15;22.42;;;333.60;2329.60;;;;;;5051080;28;20049;-80
2022/05/29 04:30:44;;;;;;;31.38;21.20;;;333.50;2329.60;;;;;;5051382;28;20028;-80
2022/05/29 04:33:10;;;;;;;32.05;23.08;;;333.50;2329.60;;;;;;5051544;28;20431;-80
2022/05/29 04:35:43;;;;;;;27.08;20.63;;;333.50;2329.60;;;;;;5051418;28;20458;-81
2022/05/29 04:38:11;;;;;;;23.92;17.50;;;333.30;2329.60;;;;;;5051490;28;20430;-80
2022/05/29 04:40:39;;;;;;;21.90;17.73;;;333.20;2329.60;;;;;;5050963;28;20125;-80
2022/05/29 04:43:05;;;;;;;21.98;12.85;;;333.20;2329.60;;;;;;5051329;28;20056;-80
2022/05/29 04:45:31;;;;;;;18.30;14.85;;;333.10;2329.60;;;;;;5051352;28;20461;-81
2022/05/29 04:47:57;;;;;;;21.98;16.65;;;333.10;2329.60;;;;;;5051079;28;20021;-81
2022/05/29 04:50:23;;;;;;;27.17;18.25;;;333.10;2329.60;;;;;;5051160;28;20032;-81
2022/05/29 04:52:52;;;;;;;25.50;17.25;;;333.20;2329.60;;;;;;5054355;28;20029;-80
2022/05/29 04:55:18;;;;;;;21.70;15.75;;;333.30;2329.60;;;;;;5059338;28;20595;-80
2022/05/29 04:57:44;;;;;;;21.60;16.45;;;333.40;2329.60;;;;;;5057991;28;20082;-80
2022/05/29 05:00:11;;;;;;;20.25;14.48;;;333.40;2329.60;;;;;;5054160;28;20021;-81
2022/05/29 05:02:37;;;;;;;20.88;15.02;;;333.30;2329.60;;;;;;5050473;28;20036;-82
2022/05/29 05:05:03;;;;;;;21.00;15.57;;;333.10;2329.60;;;;;;5049986;28;20029;-81
2022/05/29 05:07:29;;;;;;;22.42;16.20;;;333.00;2329.60;;;;;;5051120;28;20119;-81
2022/05/29 05:09:55;;;;;;;22.25;17.25;;;333.10;2329.60;;;;;;5051204;28;20092;-81
2022/05/29 05:12:21;;;;;;;32.97;22.05;;;333.10;2329.60;;;;;;5051033;28;20162;-81
2022/05/29 05:14:47;;;;;;;20.70;17.95;;;333.20;2329.60;;;;;;5050001;28;20108;-81
2022/05/29 05:17:12;;;;;;;23.70;17.17;;;333.20;2329.60;;;;;;5049642;28;20115;-80
2022/05/29 05:19:38;;;;;;;22.10;18.17;;;333.10;2329.60;;;;;;5050995;28;20111;-81
2022/05/29 05:22:08;;;;;;;17.83;15.40;;;333.10;2329.60;;;;;;5052391;28;20040;-82
2022/05/29 05:24:37;;;;;;;21.67;15.00;;;333.10;2329.60;;;;;;5048872;28;20022;-81
2022/05/29 05:27:03;;;;;;;21.15;16.33;;;333.10;2329.60;;;;;;5051463;28;20028;-82
2022/05/29 05:29:29;;;;;;;22.60;16.58;;;333.20;2329.60;;;;;;5052581;28;20568;-83
2022/05/29 05:31:55;;;;;;;22.70;18.73;;;333.10;2329.60;;;;;;5051333;28;20044;-83
2022/05/29 05:34:20;;;;;;;22.45;18.33;;;333.10;2329.60;;;;;;5052311;28;20025;-82
2022/05/29 05:36:46;;;;;;;25.17;19.00;;;333.10;2329.60;;;;;;5050997;28;20021;-82
2022/05/29 05:39:12;;;;;;;24.75;19.92;;;332.90;2329.60;;;;;;5051091;28;20021;-82
2022/05/29 05:41:38;;;;;;;20.92;16.95;;;332.90;2329.60;;;;;;5052067;28;20340;-82
2022/05/29 05:44:04;;;;;;;20.45;14.45;;;332.80;2329.60;;;;;;5051760;28;20025;-82
2022/05/29 05:46:29;;;;;;;19.27;15.60;;;332.80;2329.60;;;;;;5053365;28;20396;-82
2022/05/29 05:48:57;;;;;;;18.88;16.35;;;332.80;2329.60;;;;;;5054780;28;20162;-79
2022/05/29 05:51:23;;;;;;;17.80;14.32;;;332.90;2329.60;;;;;;5055527;28;20032;-80
2022/05/29 05:53:49;;;;;;;21.17;15.07;;;333.00;2329.60;;;;;;5055397;28;20040;-80
2022/05/29 05:56:16;;;;;;;15.88;13.20;;;332.90;2329.60;;;;;;5055499;28;20032;-83
2022/05/29 05:58:43;;;;;;;22.70;16.95;;;333.00;2329.60;;;;;;5055510;28;20037;-83
2022/05/29 06:01:12;;;;;;;13.60;11.20;;;333.00;2329.60;;;;;;5056060;28;20051;-82
2022/05/29 06:03:39;;;;;;;15.57;11.60;;;333.00;2329.60;;;;;;5055250;28;20033;-81
2022/05/29 06:06:05;;;;;;;16.60;12.15;;;332.80;2329.60;;;;;;5055703;28;20021;-82
2022/05/29 06:08:31;;;;;;;21.92;13.27;;;332.80;2329.60;;;;;;5054578;28;20091;-83
2022/05/29 06:10:57;;;;;;;18.30;12.57;;;332.90;2329.60;;;;;;5054272;28;20123;-83
2022/05/29 06:13:23;;;;;;;18.30;12.95;;;332.90;2329.60;;;;;;5054572;28;20107;-83
2022/05/29 06:15:49;;;;;;;13.60;10.88;;;332.80;2329.60;;;;;;5057444;28;20476;-82
2022/05/29 06:18:17;;;;;;;13.38;10.35;;;332.90;2329.60;;;;;;5055175;28;20111;-82
2022/05/29 06:20:43;;;;;;;13.70;10.25;;;333.00;2329.60;;;;;;5055167;28;20029;-81
2022/05/29 06:23:10;;;;;;;12.02;9.07;;;333.10;2329.60;;;;;;5055268;28;20029;-82
2022/05/29 06:25:39;;;;;;;12.38;7.93;;;332.90;2329.60;;;;;;5054943;28;20036;-82
2022/05/29 06:28:05;;;;;;;17.58;11.98;;;308.10;2304.00;;;;;;5054945;28;20049;-83
2022/05/29 06:30:32;;;;;;;13.23;7.97;;;332.80;2329.60;;;;;;5054019;28;20116;-83
2022/05/29 06:32:57;;;;;;;10.10;7.55;;;332.90;2329.60;;;;;;5054705;28;20031;-80
2022/05/29 06:35:23;;;;;;;12.52;7.82;;;332.80;2329.60;;;;;;5055246;28;20372;-81
2022/05/29 06:37:49;;;;;;;8.25;5.72;;;332.90;2329.60;;;;;;5053084;28;20368;-81
2022/05/29 06:40:15;;;;;;;14.05;7.50;;;332.90;2329.60;;;;;;5054544;28;20025;-83
2022/05/29 06:42:42;;;;;;;8.43;5.25;;;333.00;2329.60;;;;;;5054634;28;20459;-82
2022/05/29 06:45:09;;;;;;;12.43;7.22;;;332.90;2329.60;;;;;;5054382;28;20025;-82
2022/05/29 06:47:35;;;;;;;10.70;7.22;;;333.00;2329.60;;;;;;5054472;28;20078;-82
2022/05/29 06:50:02;;;;;;;12.13;6.57;;;333.00;2329.60;;;;;;5054516;28;20029;-83
2022/05/29 06:52:31;;;;;;;12.00;7.50;;;332.90;2329.60;;;;;;5052996;28;20102;-81
2022/05/29 06:54:58;;;;;;;15.35;8.18;;;332.80;2329.60;;;;;;5053035;28;20025;-83
2022/05/29 07:08:39;;;;;;;8.48;6.43;;;358.50;2329.60;;;;;;5053964;28;20047;-81
2022/05/29 07:11:08;;;;;;;17.02;11.32;;;;;;;;;;5053944;28;20064;-82
2022/05/29 07:13:34;;;;;;;13.50;8.52;;;;;;;;;;5052748;28;20032;-81
2022/05/29 07:16:01;;;;;;;9.25;7.00;;;;;;;;;;5054040;28;20017;-81
2022/05/29 07:18:29;;;;;;;13.95;8.05;;;;;;;;;;5053655;28;20037;-81
2022/05/29 07:20:55;;;;;;;11.05;7.00;;;;;;;;;;5053772;28;20051;-81
2022/05/29 07:23:21;;;;;;;7.88;6.15;;;;;;;;;;5052622;28;20088;-81
2022/05/29 07:25:47;;;;;;;8.10;6.63;;;;;;;;;;5052469;28;20491;-82
2022/05/29 07:28:12;;;;;;;9.82;6.85;;;384.30;2329.60;;;;;;5052072;28;20124;-81
2022/05/29 07:30:38;;;;;;;8.30;6.70;;;384.60;2329.60;;;;;;5053564;28;20155;-81
2022/05/29 07:33:05;;;;;;;8.32;6.25;;;409.70;2355.20;;;;;;5052291;28;20036;-81
2022/05/29 07:35:30;;;;;;;8.00;7.15;;;410.00;2355.20;;;;;;5052347;28;20048;-82
2022/05/29 07:37:56;;;;;;;8.93;6.88;;;410.10;2355.20;;;;;;5052207;28;20480;-81
2022/05/29 07:40:23;;;;;;;9.02;6.95;;;410.10;2355.20;;;;;;5053774;28;20055;-81
2022/05/29 07:45:32;;;;;;;10.35;6.38;;;410.30;2355.20;;;;;;5053439;28;20392;-82
2022/05/29 07:47:59;;;;;;;7.75;6.63;;;410.50;2355.20;;;;;;5052221;28;20029;-81
2022/05/29 07:50:25;;;;;;;10.02;7.32;;;435.40;2355.20;;;;;;5052933;28;20045;-82
2022/05/29 07:52:52;;;;;;;7.30;6.13;;;435.60;2355.20;;;;;;5051859;28;20040;-82
2022/05/29 07:55:18;;;;;;;9.05;7.15;;;435.80;2355.20;;;;;;5051892;28;20048;-81
2022/05/29 07:57:46;;;;;;;8.20;6.15;;;435.80;2355.20;;;;;;5053124;28;20086;-82
2022/05/29 08:00:14;;;;;;;7.68;6.40;;;;;;;;;;5051878;28;20119;-78
2022/05/29 08:02:40;;;;;;;14.50;8.90;;;;;;;;;;5053195;28;20021;-82
2022/05/29 08:05:06;;;;;;;9.48;6.60;;;;;;;;;;5052001;28;20032;-84
2022/05/29 08:07:32;;;;;;;9.82;6.53;;;461.50;2380.80;;;;;;5052799;28;20036;-82
2022/05/29 08:09:59;;;;;;;10.15;7.35;;;;;;;;;;5051343;28;20029;-82
2022/05/29 08:12:25;;;;;;;8.95;6.35;;;;;;;;;;5052674;28;20029;-81
2022/05/29 08:14:51;;;;;;;9.98;6.68;;;;;;;;;;5052057;28;20021;-81
2022/05/29 08:17:17;;;;;;;11.05;6.20;;;;;;;;;;5051595;28;20044;-81
2022/05/29 08:19:43;;;;;;;6.30;5.03;;;;;;;;;;5052656;28;20529;-82
2022/05/29 08:22:09;;;;;;;7.10;4.95;;;512.60;2380.80;;;;;;5051273;28;20028;-81
2022/05/29 08:33:04;;;;;;;11.82;6.20;;;486.40;2380.80;;;;;;5052187;28;20036;-83
2022/05/29 08:35:30;;;;;;;8.48;6.03;;;436.10;2355.20;;;;;;5052298;28;20028;-82
2022/05/29 08:37:56;;;;;;;11.68;6.78;;;461.00;2380.80;;;;;;5051200;28;20143;-82
2022/05/29 08:40:22;;;;;;;11.85;6.75;;;435.80;2355.20;;;;;;5051074;28;20555;-81
2022/05/29 08:42:48;;;;;;;8.35;4.72;;;435.30;2355.20;;;;;;5051073;28;20029;-81
2022/05/29 08:45:16;;;;;;;11.27;6.22;;;410.40;2355.20;;;;;;5052124;28;20024;-81
2022/05/29 08:47:45;;;;;;;10.35;5.70;;;410.30;2355.20;;;;;;5052217;28;20135;-81
2022/05/29 08:50:36;;;;;;;13.60;6.63;;;435.30;2355.20;;;;;;5052442;28;20407;-80
2022/05/29 08:53:06;;;;;;;12.02;6.28;;;436.10;2355.20;;;;;;5046737;28;20381;-80
2022/05/29 08:55:45;;;;;;;8.15;5.75;;;461.20;2380.80;;;;;;5051854;28;20464;-80
2022/05/29 08:58:39;;;;;;;8.75;5.95;;;410.30;2355.20;;;;;;5051179;28;20045;-80
2022/05/29 09:01:42;;;;;;;14.23;6.22;;;435.50;2355.20;;;;;;5053023;28;20134;-80
2022/05/29 09:04:30;;;;;;;7.85;5.38;;;435.70;2355.20;;;;;;5052538;28;20115;-81
2022/05/29 09:06:59;;;;;;;9.30;5.47;;;410.10;2355.20;;;;;;5050625;28;20029;-82
2022/05/29 09:09:37;;;;;;;8.40;5.68;;;;;;;;;;5050325;28;20455;-80
2022/05/29 09:12:12;;;;;;;5.82;4.93;;;436.00;2355.20;;;;;;5051804;28;20040;-80
2022/05/29 09:14:52;;;;;;;5.78;4.78;;;435.60;2355.20;;;;;;5051622;28;20021;-81
2022/05/29 09:17:35;;;;;;;8.73;5.03;;;435.30;2355.20;;;;;;5051778;28;20041;-82
2022/05/29 09:20:09;;;;;;;14.00;6.18;;;409.70;2355.20;;;;;;5053436;28;20094;-82
2022/05/29 09:22:46;;;;;;;9.65;6.07;;;410.30;2355.20;;;;;;5057597;28;20071;-82
2022/05/29 09:25:18;;;;;;;8.57;5.30;;;410.30;2355.20;;;;;;5055702;28;20384;-80
2022/05/29 09:27:49;;;;;;;12.00;5.53;;;384.80;2329.60;;;;;;5054633;28;20057;-80
2022/05/29 09:30:17;;;;;;;7.18;5.10;;;384.80;2329.60;;;;;;5054239;28;20159;-81
2022/05/29 09:32:49;;;;;;;10.43;4.78;;;384.60;2329.60;;;;;;5055929;28;20095;-81
2022/05/29 09:35:27;;;;;;;7.07;4.75;;;384.60;2329.60;;;;;;5056435;28;20033;-83
2022/05/29 09:38:19;;;;;;;7.22;4.68;;;409.60;2355.20;;;;;;5055556;28;20037;-81
2022/05/29 09:41:09;;;;;;;5.47;3.65;;;409.90;2355.20;;;;;;5055787;28;20028;-80
2022/05/29 09:43:35;;;;;;;9.93;4.30;;;384.80;2329.60;;;;;;5055441;28;20490;-79
2022/05/29 09:46:19;;;;;;;11.25;5.57;;;409.80;2355.20;;;;;;5055712;28;20029;-82
2022/05/29 09:51:46;;;;;;;10.35;4.50;;;384.90;2329.60;;;;;;5055667;28;20063;-80
2022/05/29 09:54:30;;;;;;;9.70;5.60;;;410.40;2355.20;;;;;;5054267;28;20036;-80
2022/05/29 09:57:19;;;;;;;9.23;5.85;;;435.50;2355.20;;;;;;5055328;28;20033;-81
2022/05/29 09:59:45;;;;;;;6.50;4.60;;;435.80;2355.20;;;;;;5054435;28;20522;-82
2022/05/29 10:02:27;;;;;;;16.48;4.22;;;435.90;2355.20;;;;;;5054276;28;20067;-82
2022/05/29 10:04:57;;;;;;;7.53;5.18;;;435.80;2355.20;;;;;;5054096;28;20449;-81
2022/05/29 10:07:41;;;;;;;8.02;4.50;;;460.90;2380.80;;;;;;5053924;28;20036;-79
2022/05/29 10:10:25;;;;;;;7.28;3.85;;;460.90;2380.80;;;;;;5054183;28;20075;-81
2022/05/29 10:12:52;;;;;;;9.73;4.13;;;461.20;2380.80;;;;;;5054427;28;20396;-80
2022/05/29 10:15:26;;;;;;;7.50;3.63;;;486.70;2380.80;;;;;;5054232;28;20035;-80
2022/05/29 10:18:00;;;;;;;9.68;4.70;;;512.40;2380.80;;;;;;5054026;28;20037;-80
2022/05/29 10:20:34;;;;;;;7.47;3.35;;;512.30;2380.80;;;;;;5051629;28;20043;-80
2022/05/29 10:23:10;;;;;;;12.27;4.75;;;461.10;2380.80;;;;;;5054179;28;20555;-80
2022/05/29 10:25:59;;;;;;;14.77;10.07;;;435.90;2355.20;;;;;;5067225;28;20029;-80
2022/05/29 10:28:37;;;;;;;5.18;3.78;;;435.50;2355.20;;;;;;5085570;28;20063;-81
2022/05/29 10:31:08;;;;;;;7.20;3.75;;;435.70;2355.20;;;;;;5064153;28;20021;-81
2022/05/29 10:33:35;;;;;;;8.43;3.72;;;436.00;2355.20;;;;;;5052466;28;20032;-80
2022/05/29 10:36:08;;;;;;;5.85;3.80;;;;;;;;;;5052446;28;20088;-79
2022/05/29 10:38:35;;;;;;;7.70;3.83;;;436.00;2355.20;;;;;;5052532;28;20162;-80
2022/05/29 10:41:03;;;;;;;7.25;4.50;;;460.90;2380.80;;;;;;5052574;28;20392;-80
2022/05/29 10:43:48;;;;;;;11.80;4.97;;;461.20;2380.80;;;;;;5053930;28;20025;-82
2022/05/29 10:46:22;;;;;;;7.80;4.00;;;461.10;2380.80;;;;;;5055815;28;20104;-79
2022/05/29 10:48:57;;;;;;;8.85;4.20;;;461.20;2380.80;;;;;;5054050;28;20056;-76
2022/05/29 10:51:33;;;;;;;6.78;3.75;;;435.90;2355.20;;;;;;5054184;28;20057;-75
2022/05/29 10:54:26;;;;;;;7.00;4.68;;;435.90;2355.20;;;;;;5053317;28;20108;-78
2022/05/29 10:57:17;;;;;;;6.28;4.80;;;435.80;2355.20;;;;;;5051029;28;20472;-79
2022/05/29 11:00:07;;;;;;;8.82;4.43;;;435.60;2355.20;;;;;;5052957;28;20056;-79
2022/05/29 11:05:29;;;;;;;11.52;5.20;;;410.20;2355.20;;;;;;5052648;28;20507;-78
2022/05/29 11:08:13;;;;;;;8.30;5.25;;;410.30;2355.20;;;;;;5052978;28;20392;-78
2022/05/29 11:11:17;;;;;;;10.68;6.63;;;435.20;2355.20;;;;;;5053721;28;20033;-79
2022/05/29 11:13:55;;;;;;;10.10;5.22;;;435.20;2355.20;;;;;;5053925;28;20035;-81
2022/05/29 11:16:39;;;;;;;9.48;5.35;;;410.50;2355.20;;;;;;5054375;28;20036;-82
2022/05/29 11:19:29;;;;;;;9.90;5.30;;;410.30;2355.20;;;;;;5053189;28;20135;-81
2022/05/29 11:22:13;;;;;;;10.50;5.25;;;410.20;2355.20;;;;;;5053079;28;20081;-81
2022/05/29 11:24:57;;;;;;;12.30;5.55;;;409.80;2355.20;;;;;;5053027;28;20345;-81
2022/05/29 11:27:41;;;;;;;;;;;410.30;2355.20;;;;;;5053390;28;20134;-81
2022/05/29 11:30:15;;;;;;;9.48;4.75;;;410.00;2355.20;;;;;;5053033;28;19916;-81
2022/05/29 11:32:59;;;;;;;9.63;5.18;;;410.00;2355.20;;;;;;5051745;28;20025;-81
2022/05/29 11:35:43;;;;;;;9.30;5.03;;;410.10;2355.20;;;;;;5051655;28;20090;-81
2022/05/29 11:38:18;;;;;;;7.75;5.30;;;410.20;2355.20;;;;;;5052753;28;20044;-81
2022/05/29 11:41:01;;;;;;;5.93;4.80;;;410.50;2355.20;;;;;;5052644;28;20037;-79
2022/05/29 11:43:34;;;;;;;7.30;5.13;;;435.40;2355.20;;;;;;5051570;28;20468;-80
2022/05/29 11:52:16;;;;;;;9.70;5.53;;;461.20;2380.80;;;;;;5052855;28;20514;-79
2022/05/29 11:55:09;;;;;;;11.35;6.00;;;460.80;2380.80;;;;;;5052561;28;20025;-80
2022/05/29 11:57:56;;;;;;;10.67;6.67;;;461.10;2380.80;;;;;;5048879;28;20045;-81
2022/05/29 12:00:28;;;;;;;9.80;5.80;;;;;;;;;;5052147;28;20293;-80
2022/05/29 12:03:02;;;;;;;6.82;5.45;;;461.10;2380.80;;;;;;5054643;28;20029;-81
2022/05/29 12:05:36;;;;;;;8.40;5.03;;;461.20;2380.80;;;;;;5052098;28;20044;-77
2022/05/29 12:08:16;;;;;;;;;;;461.30;2380.80;;;;;;5056698;28;20472;-83
2022/05/29 12:11:18;;;;;;;11.82;5.05;;;486.70;2380.80;;;;;;5053384;28;19912;-81
2022/05/29 12:14:08;;;;;;;12.25;5.88;;;461.50;2380.80;;;;;;5043747;28;20035;-80
2022/05/29 12:16:39;;;;;;;11.50;5.57;;;486.80;2380.80;;;;;;5051560;28;20098;-81
2022/05/29 12:19:16;;;;;;;8.70;5.53;;;512.00;2380.80;;;;;;5051324;28;20036;-80
2022/05/29 12:21:46;;;;;;;9.43;5.18;;;512.40;2380.80;;;;;;5052809;28;20037;-80
2022/05/29 12:24:24;;;;;;;9.45;5.00;;;512.30;2380.80;;;;;;5051204;28;20067;-79
2022/05/29 12:26:59;;;;;;;9.75;6.20;;;512.80;2380.80;;;;;;5051361;28;20028;-80
2022/05/29 12:29:38;;;;;;;8.00;4.28;;;537.60;2406.40;;;;;;5051263;28;20052;-79
2022/05/29 12:32:19;;;;;;;20.55;5.30;;;537.60;2406.40;;;;;;5051244;28;20056;-79
2022/05/29 12:34:54;;;;;;;11.75;5.38;;;538.00;2406.40;;;;;;5050984;28;20065;-80
2022/05/29 12:37:44;;;;;;;11.68;6.43;;;512.80;2380.80;;;;;;5050626;28;20373;-80
2022/05/29 12:40:13;;;;;;;18.25;7.97;;;487.00;2380.80;;;;;;5051279;28;20035;-82
2022/05/29 12:42:56;;;;;;;12.10;6.50;;;512.00;2380.80;;;;;;5051465;28;20108;-81
2022/05/29 12:45:40;;;;;;;11.38;5.53;;;512.50;2380.80;;;;;;5030876;28;20473;-80
2022/05/29 12:48:15;;;;;;;;;;;512.90;2380.80;;;;;;5048235;28;20034;-81
2022/05/29 12:51:11;;;;;;;7.07;4.07;;;537.80;2406.40;;;;;;5047538;28;19951;-81
2022/05/29 12:53:48;;;;;;;11.43;5.00;;;538.00;2406.40;;;;;;5031942;28;20112;-79
2022/05/29 12:56:51;;;;;;;14.80;6.35;;;512.00;2380.80;;;;;;5047241;28;20381;-80
2022/05/29 12:59:51;;;;;;;15.95;8.60;;;487.20;2380.80;;;;;;5047604;28;20040;-79
2022/05/29 13:02:47;;;;;;;12.45;6.68;;;512.50;2380.80;;;;;;5047212;28;20095;-79
2022/05/29 13:05:36;;;;;;;7.57;5.25;;;538.10;2406.40;;;;;;5031918;28;20029;-80
2022/05/29 13:08:20;;;;;;;6.15;4.78;;;538.30;2406.40;;;;;;5030737;28;20033;-79
2022/05/29 13:10:51;;;;;;;10.65;4.35;;;563.30;2432.00;;;;;;5030517;28;20037;-80
2022/05/29 13:13:23;;;;;;;14.23;5.20;;;563.50;2432.00;;;;;;5031871;28;20030;-78
2022/05/29 13:15:49;;;;;;;10.00;5.07;;;563.70;2432.00;;;;;;5031461;28;20018;-78
2022/05/29 13:21:07;;;;;;;9.77;4.00;;;;;;;;;;5031904;28;20037;-78
2022/05/29 13:23:32;;;;;;;;;;;;;;;;;;5047482;28;20163;-78
2022/05/29 13:25:58;;;;;;;7.15;4.10;;;;;;;;;;5057323;28;20003;-78
2022/05/29 13:28:43;;;;;;;9.77;4.65;;;;;;;;;;5030109;28;20362;-78